Date,TemperatureHighF,TemperatureAvgF,TemperatureLowF,DewpointHighF,DewpointAvgF,DewpointLowF,HumidityHigh,HumidityAvg,HumidityLow,PressureMaxIn,PressureMinIn,WindSpeedMaxMPH,WindSpeedAvgMPH,GustSpeedMaxMPH,PrecipitationSumIn
2013-9-1,88.0,80.3,75.0,78.4,74.8,69.8,99,84,63,30.04,29.96,16,5,0,0.00
2013-9-2,84.9,80.5,77.0,79.0,75.4,72.1,100,85,70,30.08,29.96,15,4,0,0.00
2013-9-3,90.0,81.0,75.9,77.2,74.1,70.2,100,81,54,30.08,29.96,11,4,0,0.00
2013-9-4,87.1,80.7,77.0,78.8,76.2,71.4,100,87,63,30.09,29.98,15,4,0,0.00
2013-9-5,88.0,81.8,77.0,79.0,76.0,72.3,100,84,65,30.12,30.01,15,4,0,0.00
2013-9-6,87.1,80.7,72.0,78.3,75.2,69.4,100,84,65,30.08,29.96,25,6,0,0.00
2013-9-7,89.1,79.0,73.9,76.1,73.2,68.9,100,83,64,30.04,29.95,22,5,0,0.00
2013-9-8,87.1,78.0,71.1,74.5,72.2,69.8,100,83,61,29.99,29.90,23,4,0,0.00
2013-9-9,88.0,78.8,73.9,76.8,73.6,69.4,100,85,55,30.04,29.91,23,4,0,0.00
2013-9-10,89.1,79.6,75.0,76.5,73.7,69.6,100,83,58,30.08,29.99,27,6,0,0.00
2013-9-11,84.0,77.9,75.0,76.5,74.3,71.1,100,89,69,30.08,30.00,26,6,0,0.00
2013-9-12,84.0,78.8,73.9,77.2,73.3,69.1,100,84,66,30.06,29.93,15,4,0,0.00
2013-9-13,87.1,79.4,73.9,76.8,72.4,67.6,100,80,61,29.96,29.86,12,4,0,0.00
2013-9-14,88.0,82.1,77.0,77.0,73.4,70.0,93,76,57,30.01,29.87,13,4,0,0.00
2013-9-15,88.0,79.2,73.0,77.2,74.2,68.9,98,85,65,30.08,29.96,32,6,0,0.00
2013-9-16,84.9,79.4,75.0,77.7,74.4,70.0,100,85,67,30.08,29.99,22,6,0,0.00
2013-9-17,84.9,77.9,75.0,78.1,74.0,69.1,100,88,65,30.06,29.95,16,4,0,0.00
2013-9-18,86.0,78.5,73.9,77.4,73.9,70.0,100,86,66,30.04,29.95,13,5,0,0.00
2013-9-19,88.0,78.7,73.0,77.7,73.3,71.1,100,85,59,30.04,29.96,15,4,0,0.00
2013-9-20,88.0,80.6,75.0,77.0,71.3,64.8,100,75,53,30.04,29.91,15,5,0,0.00
2013-9-21,82.9,79.0,73.0,76.1,71.2,67.6,98,78,63,29.96,29.83,14,5,0,0.00
2013-9-22,84.9,81.2,77.0,77.2,73.8,70.3,98,79,66,29.91,29.82,19,6,0,0.00
2013-9-23,84.9,81.6,75.0,79.5,75.4,68.0,99,82,68,30.00,29.88,25,8,0,0.00
2013-9-24,84.9,80.2,73.9,80.1,75.3,69.8,100,86,68,30.01,29.94,16,6,0,0.00
2013-9-25,87.1,80.7,75.9,79.2,74.7,69.8,100,82,65,29.96,29.83,20,6,0,0.00
2013-9-26,84.9,82.5,77.0,79.3,75.9,72.1,91,81,72,29.94,29.86,29,11,0,0.00
2013-9-27,84.9,79.7,73.9,76.8,72.1,68.2,97,78,62,29.96,29.87,15,4,0,0.00
2013-9-28,88.0,78.7,73.0,75.6,72.2,68.0,100,81,54,30.01,29.91,22,5,0,0.00
2013-9-29,87.1,78.0,73.0,74.3,71.1,68.2,98,80,56,30.01,29.91,15,5,0,0.00
2013-9-30,84.9,78.2,73.0,75.2,71.0,63.9,100,80,56,30.03,29.91,13,6,5,0.00